Time;durP1;ratioP1;P1;durP2;ratioP2;P2;SDS_P1;SDS_P2;PMS_P1;PMS_P2;Temp;Humidity;BMP_temperature;BMP_pressure;BME280_temperature;BME280_humidity;BME280_pressure;Samples;Min_cycle;Max_cycle;Signal;HPM_P1;HPM_P2
2023/05/22 00:01:25;;;;;;;55.03;40.85;;;;;;;17.77;100.00;100678.41;4996510;28;20054;-78
2023/05/22 00:03:51;;;;;;;52.60;40.10;;;;;;;17.74;100.00;100666.41;4993195;28;20125;-78
2023/05/22 00:06:20;;;;;;;50.35;39.75;;;;;;;17.75;100.00;100675.16;4998723;28;20137;-79
2023/05/22 00:08:47;;;;;;;52.63;39.85;;;;;;;17.80;100.00;100675.38;4996536;28;20046;-78
2023/05/22 00:11:14;;;;;;;49.17;39.47;;;;;;;17.80;100.00;100667.44;4998145;28;20085;-78
2023/05/22 00:13:41;;;;;;;50.80;39.22;;;;;;;17.78;100.00;100664.16;4996864;28;20115;-79
2023/05/22 00:16:08;;;;;;;52.05;39.78;;;;;;;17.79;100.00;100663.16;4996881;28;20133;-78
2023/05/22 00:18:34;;;;;;;50.35;40.92;;;;;;;17.72;100.00;100659.69;4999106;28;20085;-78
2023/05/22 00:21:01;;;;;;;49.30;40.10;;;;;;;17.69;100.00;100654.78;5005786;28;20082;-78
2023/05/22 00:23:29;;;;;;;54.08;40.33;;;;;;;17.64;100.00;100651.91;5005703;28;20062;-79
2023/05/22 00:25:56;;;;;;;51.13;39.55;;;;;;;17.61;100.00;100660.22;4995029;28;20050;-78
2023/05/22 00:28:22;;;;;;;49.63;39.15;;;;;;;17.57;100.00;100650.06;4996707;28;20050;-79
2023/05/22 00:30:49;;;;;;;49.70;39.88;;;;;;;17.51;100.00;100647.38;4995928;28;20114;-80
2023/05/22 00:33:15;;;;;;;49.42;38.67;;;;;;;17.48;100.00;100646.00;4996251;28;20184;-80
2023/05/22 00:35:42;;;;;;;53.00;40.10;;;;;;;17.43;100.00;100644.97;4993685;28;20565;-78
2023/05/22 00:38:09;;;;;;;52.88;40.83;;;;;;;17.42;100.00;100649.44;4996693;28;20105;-79
2023/05/22 00:40:37;;;;;;;51.47;39.78;;;;;;;17.40;100.00;100646.16;4989160;28;20133;-79
2023/05/22 00:43:07;;;;;;;51.88;38.78;;;;;;;17.32;100.00;100650.81;4996457;28;20050;-78
2023/05/22 00:45:33;;;;;;;48.50;37.58;;;;;;;17.29;100.00;100648.56;4992258;28;20130;-78
2023/05/22 00:48:00;;;;;;;46.20;37.65;;;;;;;17.27;100.00;100651.41;4989052;28;20093;-77
2023/05/22 00:50:27;;;;;;;52.70;39.45;;;;;;;17.20;100.00;100653.22;4990255;28;20133;-76
2023/05/22 00:52:53;;;;;;;52.05;40.60;;;;;;;17.13;100.00;100649.75;4987810;28;20123;-77
2023/05/22 00:55:20;;;;;;;51.53;40.80;;;;;;;17.10;100.00;100666.00;4995723;28;20090;-78
2023/05/22 00:57:48;;;;;;;52.08;39.22;;;;;;;17.03;100.00;100665.16;5000437;28;20562;-77
2023/05/22 01:00:16;;;;;;;56.80;40.70;;;;;;;17.02;100.00;100663.50;4995932;28;20054;-78
2023/05/22 01:02:42;;;;;;;52.17;39.03;;;;;;;17.03;100.00;100659.88;5000154;28;20137;-78
2023/05/22 01:05:11;;;;;;;51.08;39.75;;;;;;;16.97;100.00;100663.31;5000354;28;20069;-79
2023/05/22 01:07:38;;;;;;;51.00;39.53;;;;;;;16.93;100.00;100652.31;5000600;28;20077;-78
2023/05/22 01:10:06;;;;;;;54.13;40.20;;;;;;;16.90;100.00;100653.53;4999555;28;20046;-80
2023/05/22 01:12:47;;;;;;;47.25;39.53;;;;;;;16.88;100.00;100657.38;5022443;23;20046;-78
2023/05/22 01:15:22;;;;;;;50.47;39.55;;;;;;;16.85;100.00;100661.22;5004392;28;20181;-78
2023/05/22 01:18:03;;;;;;;47.58;38.80;;;;;;;16.82;100.00;100666.91;5014850;28;20046;-79
2023/05/22 01:20:35;;;;;;;49.88;39.25;;;;;;;16.80;100.00;100661.00;5009482;28;20057;-77
2023/05/22 01:23:35;;;;;;;51.05;40.40;;;;;;;16.82;100.00;100658.97;5012534;28;20457;-77
2023/05/22 01:26:25;;;;;;;53.25;40.17;;;;;;;16.83;100.00;100665.06;5011831;28;20564;-77
2023/05/22 01:29:14;;;;;;;58.97;41.55;;;;;;;16.77;100.00;100656.09;4997680;28;20133;-78
2023/05/22 01:31:43;;;;;;;54.33;41.90;;;;;;;16.72;100.00;100663.78;4979531;28;20052;-79
2023/05/22 01:34:12;;;;;;;53.25;41.47;;;;;;;16.68;100.00;100657.28;5010427;28;20077;-78
2023/05/22 01:36:40;;;;;;;56.47;42.45;;;;;;;16.64;100.00;100661.31;5011425;28;20077;-78
2023/05/22 01:39:08;;;;;;;64.03;43.75;;;;;;;16.62;100.00;100646.63;5007942;28;20085;-78
2023/05/22 01:41:35;;;;;;;58.97;43.13;;;;;;;16.59;100.00;100653.13;5009726;28;20046;-78
2023/05/22 01:44:02;;;;;;;60.92;42.00;;;;;;;16.54;100.00;100650.28;5010845;28;20045;-77
2023/05/22 01:46:30;;;;;;;59.20;43.38;;;;;;;16.57;100.00;100644.56;5008437;28;20136;-78
2023/05/22 01:48:58;;;;;;;62.17;45.58;;;;;;;16.58;100.00;100646.19;5005752;28;20125;-78
2023/05/22 01:51:33;;;;;;;60.63;43.45;;;;;;;16.58;100.00;100652.31;5014866;28;20377;-79
2023/05/22 01:54:06;;;;;;;54.95;42.90;;;;;;;16.59;100.00;100647.84;5009536;28;20140;-78
2023/05/22 01:56:36;;;;;;;;;;;;;;;16.60;100.00;100639.72;5011851;28;20130;-77
2023/05/22 01:59:10;;;;;;;56.03;42.92;;;;;;;16.55;100.00;100639.47;5007103;28;20019;-77
2023/05/22 02:01:38;;;;;;;63.88;43.95;;;;;;;16.50;100.00;100634.00;5012835;28;20042;-77
2023/05/22 02:04:10;;;;;;;60.88;43.78;;;;;;;16.50;100.00;100638.47;5010502;28;20081;-78
2023/05/22 02:06:38;;;;;;;55.38;43.58;;;;;;;16.46;100.00;100637.22;5005833;28;20052;-78
2023/05/22 02:09:05;;;;;;;63.45;43.90;;;;;;;16.42;100.00;100641.25;5009143;28;20038;-79
2023/05/22 02:11:34;;;;;;;58.10;44.83;;;;;;;16.38;100.00;100640.00;5011352;28;20426;-78
2023/05/22 02:14:01;;;;;;;60.08;43.90;;;;;;;16.35;100.00;100643.03;5009471;28;20550;-79
2023/05/22 02:16:29;;;;;;;58.38;43.83;;;;;;;16.33;100.00;100645.03;5035985;28;20042;-79
2023/05/22 02:19:05;;;;;;;59.00;42.55;;;;;;;16.25;100.00;100643.34;5031319;28;20065;-79
2023/05/22 02:21:34;;;;;;;58.30;41.75;;;;;;;16.21;100.00;100645.56;5028782;28;20142;-80
2023/05/22 02:24:01;;;;;;;62.40;42.20;;;;;;;16.21;100.00;100645.56;5025908;28;20066;-79
2023/05/22 02:26:28;;;;;;;55.17;41.90;;;;;;;16.19;100.00;100637.03;5022628;28;20056;-79
2023/05/22 02:28:55;;;;;;;57.05;42.65;;;;;;;16.16;100.00;100645.31;5013720;28;20077;-79
2023/05/22 02:31:21;;;;;;;55.80;40.60;;;;;;;16.14;100.00;100644.69;5013028;28;20069;-79
2023/05/22 02:33:49;;;;;;;56.47;39.83;;;;;;;16.12;100.00;100641.44;5012875;28;20056;-79
2023/05/22 02:36:16;;;;;;;52.65;40.83;;;;;;;16.09;100.00;100639.19;5008783;28;20057;-78
2023/05/22 02:38:44;;;;;;;48.47;38.90;;;;;;;16.08;100.00;100640.19;5003586;28;20137;-77
2023/05/22 02:41:10;;;;;;;52.85;39.58;;;;;;;16.06;100.00;100631.66;5010034;28;20072;-77
2023/05/22 02:43:37;;;;;;;56.20;39.60;;;;;;;16.04;100.00;100632.88;5006618;28;20213;-77
2023/05/22 02:46:04;;;;;;;54.88;41.15;;;;;;;16.06;100.00;100639.59;5006925;28;20108;-77
2023/05/22 02:48:30;;;;;;;60.15;41.60;;;;;;;16.08;100.00;100639.38;5013047;28;20128;-78
2023/05/22 02:50:57;;;;;;;56.20;41.45;;;;;;;16.06;100.00;100639.59;5001861;28;20132;-77
2023/05/22 02:53:23;;;;;;;54.90;39.85;;;;;;;16.02;100.00;100640.16;5009570;28;20073;-78
2023/05/22 02:55:51;;;;;;;52.35;37.92;;;;;;;15.98;100.00;100634.44;5009286;28;20066;-77
2023/05/22 02:58:20;;;;;;;53.70;38.67;;;;;;;15.93;100.00;100621.81;5012388;28;20129;-77
2023/05/22 03:00:46;;;;;;;53.15;39.90;;;;;;;15.88;100.00;100629.50;5006750;28;20057;-78
2023/05/22 03:03:13;;;;;;;54.53;40.17;;;;;;;15.92;100.00;100622.00;5009748;28;20136;-77
2023/05/22 03:05:39;;;;;;;53.53;38.80;;;;;;;15.85;100.00;100616.69;5013324;28;20038;-78
2023/05/22 03:08:06;;;;;;;52.30;38.92;;;;;;;15.84;100.00;100624.78;5007565;28;20046;-78
2023/05/22 03:10:33;;;;;;;50.45;37.67;;;;;;;15.82;100.00;100624.16;5010154;28;20049;-77
2023/05/22 03:13:01;;;;;;;47.78;36.67;;;;;;;15.79;100.00;100619.25;5009673;28;20189;-76
2023/05/22 03:15:27;;;;;;;43.47;34.95;;;;;;;15.82;100.00;100624.16;5004169;28;20065;-78
2023/05/22 03:17:54;;;;;;;48.30;34.70;;;;;;;15.78;100.00;100633.44;5011481;28;20052;-78
2023/05/22 03:20:20;;;;;;;41.17;32.30;;;;;;;15.74;100.00;100621.66;5009712;28;20053;-78
2023/05/22 03:22:50;;;;;;;41.83;31.77;;;;;;;15.68;100.00;100627.66;5009844;28;20042;-78
2023/05/22 03:25:16;;;;;;;43.25;31.55;;;;;;;15.71;100.00;100624.66;5003336;28;20141;-76
2023/05/22 03:27:44;;;;;;;47.08;31.52;;;;;;;15.70;100.00;100629.13;5009402;28;20137;-77
2023/05/22 03:30:13;;;;;;;39.00;30.15;;;;;;;15.70;100.00;100620.38;5001333;28;20049;-78
2023/05/22 03:32:40;;;;;;;42.83;30.58;;;;;;;15.63;100.00;100619.50;5009640;28;20046;-78
2023/05/22 03:35:11;;;;;;;40.90;30.50;;;;;;;15.66;100.00;100612.03;5011960;28;20160;-78
2023/05/22 03:37:38;;;;;;;44.53;29.48;;;;;;;15.60;100.00;100623.34;5009721;28;20057;-77
2023/05/22 03:40:06;;;;;;;40.75;28.98;;;;;;;15.49;100.00;100621.19;5006339;28;20129;-77
2023/05/22 03:42:33;;;;;;;39.28;27.70;;;;;;;15.49;100.00;100623.84;5009895;28;20045;-77
2023/05/22 03:44:59;;;;;;;39.13;28.35;;;;;;;15.39;100.00;100623.31;5006440;28;20173;-77
2023/05/22 03:47:27;;;;;;;40.80;29.85;;;;;;;15.34;100.00;100626.50;5004531;28;20120;-77
2023/05/22 03:49:54;;;;;;;38.72;29.80;;;;;;;15.28;100.00;100627.25;5005959;28;20485;-78
2023/05/22 03:52:22;;;;;;;42.60;30.60;;;;;;;15.26;100.00;100629.25;5010318;28;20057;-77
2023/05/22 03:54:48;;;;;;;42.08;32.63;;;;;;;15.27;100.00;100638.81;5004935;28;20136;-77
2023/05/22 03:57:18;;;;;;;48.88;33.17;;;;;;;15.24;100.00;100631.25;5006327;28;20137;-76
2023/05/22 03:59:45;;;;;;;41.47;33.53;;;;;;;15.27;100.00;100630.91;5011293;28;20049;-76
2023/05/22 04:02:11;;;;;;;45.78;33.67;;;;;;;15.26;100.00;100631.91;5006726;28;20079;-78
2023/05/22 04:04:39;;;;;;;42.55;34.17;;;;;;;15.23;100.00;100624.34;5011827;28;20086;-78
2023/05/22 04:07:07;;;;;;;43.83;34.80;;;;;;;15.19;100.00;100623.09;5011117;28;20133;-78
2023/05/22 04:09:35;;;;;;;48.20;35.60;;;;;;;15.26;100.00;100634.53;5004676;28;20049;-78
2023/05/22 04:12:02;;;;;;;52.55;36.88;;;;;;;15.16;100.00;100647.19;5011188;28;20133;-78
2023/05/22 04:14:29;;;;;;;49.38;38.70;;;;;;;15.17;100.00;100646.19;5006750;28;20054;-78
2023/05/22 04:16:58;;;;;;;54.50;39.67;;;;;;;15.20;100.00;100640.53;5011023;28;20070;-78
2023/05/22 04:19:26;;;;;;;53.22;40.40;;;;;;;15.23;100.00;100642.81;5007802;28;20081;-78
2023/05/22 04:21:54;;;;;;;54.13;40.50;;;;;;;15.24;100.00;100649.72;5011111;28;20529;-77
2023/05/22 04:24:22;;;;;;;61.22;41.90;;;;;;;15.21;100.00;100648.25;5005260;28;20141;-78
2023/05/22 04:26:48;;;;;;;61.13;43.60;;;;;;;15.30;100.00;100645.53;5007528;28;20062;-78
2023/05/22 04:29:15;;;;;;;61.28;42.85;;;;;;;15.36;100.00;100650.88;5016127;28;20061;-78
2023/05/22 04:31:42;;;;;;;61.03;44.20;;;;;;;15.33;100.00;100656.50;5016999;28;20053;-78
2023/05/22 04:34:11;;;;;;;60.03;43.17;;;;;;;15.33;100.00;100667.06;5020631;28;20488;-79
2023/05/22 04:36:43;;;;;;;61.25;44.28;;;;;;;15.32;100.00;100660.16;5016044;28;20064;-79
2023/05/22 04:39:14;;;;;;;67.05;44.95;;;;;;;15.38;100.00;100669.16;5014086;28;20061;-78
2023/05/22 04:41:44;;;;;;;69.28;45.00;;;;;;;15.44;100.00;100674.50;5013522;28;20510;-79
2023/05/22 04:44:11;;;;;;;65.40;43.63;;;;;;;15.51;100.00;100677.22;4995047;28;20054;-78
2023/05/22 04:46:40;;;;;;;60.20;44.85;;;;;;;15.43;100.00;100667.59;5010872;28;20140;-79
2023/05/22 04:49:07;;;;;;;61.63;44.50;;;;;;;15.63;100.00;100672.25;5014932;28;20050;-80
2023/05/22 04:51:33;;;;;;;60.55;42.83;;;;;;;15.60;100.00;100674.25;5007425;28;20057;-80
2023/05/22 04:54:02;;;;;;;58.50;43.60;;;;;;;15.61;100.00;100669.81;5017077;28;20077;-81
2023/05/22 04:56:30;;;;;;;54.42;41.65;;;;;;;15.68;100.00;100675.97;5008157;28;20086;-79
2023/05/22 04:59:07;;;;;;;56.05;42.72;;;;;;;15.76;100.00;100682.94;5010483;28;20294;-79
2023/05/22 05:01:34;;;;;;;52.42;41.13;;;;;;;15.77;100.00;100676.66;5002221;28;20484;-78
2023/05/22 05:04:02;;;;;;;54.60;40.85;;;;;;;15.70;100.00;100675.78;5011712;28;20124;-79
2023/05/22 05:06:28;;;;;;;53.53;41.38;;;;;;;15.66;100.00;100672.69;5008731;28;20052;-77
2023/05/22 05:08:55;;;;;;;55.85;42.92;;;;;;;15.73;100.00;100675.41;5010978;28;20100;-78
2023/05/22 05:11:22;;;;;;;61.67;42.63;;;;;;;15.69;100.00;100672.31;5012046;28;20141;-79
2023/05/22 05:13:50;;;;;;;57.15;43.05;;;;;;;15.80;100.00;100674.47;5011186;28;20077;-78
2023/05/22 05:16:17;;;;;;;66.70;47.03;;;;;;;15.78;100.00;100675.66;5005159;28;20081;-78
2023/05/22 05:18:45;;;;;;;70.97;46.78;;;;;;;15.79;100.00;100667.56;5013368;28;20050;-78
2023/05/22 05:21:12;;;;;;;65.63;45.08;;;;;;;15.90;100.00;100676.78;5016696;28;20081;-78
2023/05/22 05:23:38;;;;;;;66.70;46.05;;;;;;;16.02;100.00;100677.94;5016167;28;20050;-80
2023/05/22 05:26:06;;;;;;;67.10;46.45;;;;;;;16.04;100.00;100670.63;5030704;28;20034;-80
2023/05/22 05:28:32;;;;;;;67.72;47.47;;;;;;;16.29;100.00;100678.13;5023048;28;20058;-78
2023/05/22 05:31:00;;;;;;;67.13;46.72;;;;;;;16.45;100.00;100686.56;5009296;28;20534;-79
2023/05/22 05:33:27;;;;;;;77.15;47.67;;;;;;;16.67;100.00;100684.69;5013251;28;20046;-78
2023/05/22 05:35:53;;;;;;;94.95;54.30;;;;;;;16.65;100.00;100681.44;5004410;28;20486;-79
2023/05/22 05:38:20;;;;;;;102.40;56.45;;;;;;;16.42;100.00;100683.50;5012051;28;20058;-79
2023/05/22 05:40:47;;;;;;;97.55;59.03;;;;;;;16.36;100.00;100686.91;5015217;28;20081;-79
2023/05/22 05:43:14;;;;;;;100.28;59.42;;;;;;;16.28;100.00;100687.88;5009869;28;20506;-78
2023/05/22 05:45:41;;;;;;;124.43;64.75;;;;;;;16.26;100.00;100687.25;5006668;28;20045;-77
2023/05/22 05:48:09;;;;;;;115.43;66.43;;;;;;;16.11;100.00;100697.06;5015195;28;20468;-77
2023/05/22 05:50:35;;;;;;;118.00;66.18;;;;;;;16.05;100.00;100689.94;5013826;28;20073;-77
2023/05/22 05:53:02;;;;;;;116.90;67.13;;;;;;;16.25;100.00;100694.34;5014894;28;20133;-77
2023/05/22 05:55:30;;;;;;;112.78;64.10;;;;;;;16.29;100.00;100696.59;5015338;28;20086;-79
2023/05/22 05:57:56;;;;;;;115.90;64.45;;;;;;;16.39;100.00;100699.72;5017298;28;20088;-77
2023/05/22 06:00:23;;;;;;;111.53;64.97;;;;;;;16.45;100.00;100698.97;5011892;28;20420;-77
2023/05/22 06:02:49;;;;;;;108.80;63.38;;;;;;;16.43;100.00;100700.97;5012466;28;20478;-78
2023/05/22 06:05:22;;;;;;;114.85;65.32;;;;;;;16.41;100.00;100703.81;5015038;28;20073;-79
2023/05/22 06:07:48;;;;;;;;;;;;;;;16.30;100.00;100708.81;5015230;28;20128;-78
2023/05/22 06:10:15;;;;;;;102.45;60.80;;;;;;;16.21;100.00;100716.03;5013689;28;19960;-77
2023/05/22 06:12:42;;;;;;;112.07;62.60;;;;;;;16.36;100.00;100716.78;5013426;28;20482;-77
2023/05/22 06:15:08;;;;;;;119.18;66.78;;;;;;;16.31;100.00;100719.16;5005258;28;20089;-77
2023/05/22 06:17:35;;;;;;;120.47;66.85;;;;;;;16.24;100.00;100720.94;5013316;28;20141;-77
2023/05/22 06:20:03;;;;;;;115.65;69.15;;;;;;;16.14;100.00;100715.97;5012864;28;20054;-77
2023/05/22 06:22:31;;;;;;;122.63;67.35;;;;;;;16.17;100.00;100717.41;5007512;28;20050;-77
2023/05/22 06:25:00;;;;;;;113.60;65.80;;;;;;;16.12;100.00;100720.63;5012034;28;20478;-77
2023/05/22 06:27:27;;;;;;;116.80;67.50;;;;;;;16.08;100.00;100719.38;5013074;28;20132;-77
2023/05/22 06:29:54;;;;;;;115.30;67.53;;;;;;;16.14;100.00;100718.63;5011163;28;20046;-78
2023/05/22 06:32:20;;;;;;;120.75;68.90;;;;;;;16.14;100.00;100723.91;5010940;28;20058;-77
2023/05/22 06:34:48;;;;;;;112.82;63.75;;;;;;;16.16;100.00;100715.78;5013217;28;20137;-77
2023/05/22 06:37:15;;;;;;;120.10;64.70;;;;;;;16.27;100.00;100723.19;5012882;28;20057;-77
2023/05/22 06:39:43;;;;;;;110.97;63.05;;;;;;;16.44;100.00;100721.91;5004767;28;20046;-76
2023/05/22 06:42:09;;;;;;;111.50;66.10;;;;;;;16.48;100.00;100725.00;5012897;28;20054;-77
2023/05/22 06:44:36;;;;;;;112.43;65.43;;;;;;;16.30;100.00;100736.03;5012671;28;20141;-77
2023/05/22 06:47:02;;;;;;;107.80;65.28;;;;;;;16.48;100.00;100728.44;5008302;28;20077;-77
2023/05/22 06:49:29;;;;;;;98.95;60.65;;;;;;;16.68;100.00;100731.25;5012632;28;20060;-77
2023/05/22 06:51:56;;;;;;;96.28;56.17;;;;;;;16.96;100.00;100744.44;5011832;28;20128;-77
2023/05/22 06:54:22;;;;;;;90.55;57.17;;;;;;;17.10;100.00;100746.13;5007215;28;20141;-78
2023/05/22 06:56:50;;;;;;;91.72;56.90;;;;;;;17.10;100.00;100747.97;5012151;28;20141;-77
2023/05/22 06:59:17;;;;;;;95.30;59.55;;;;;;;17.11;100.00;100750.41;4995906;28;20049;-77
2023/05/22 07:01:44;;;;;;;104.43;65.97;;;;;;;17.27;100.00;100749.28;5006819;28;20077;-78
2023/05/22 07:04:12;;;;;;;110.43;67.20;;;;;;;17.30;100.00;100751.53;5012922;28;20054;-78
2023/05/22 07:06:40;;;;;;;111.88;65.80;;;;;;;17.20;100.00;100761.63;5005298;28;20085;-78
2023/05/22 07:09:09;;;;;;;105.85;67.38;;;;;;;17.02;100.00;100750.75;4992473;28;20050;-77
2023/05/22 07:11:38;;;;;;;110.18;67.50;;;;;;;17.18;100.00;100755.72;5007314;28;20080;-76
2023/05/22 07:14:07;;;;;;;107.43;66.72;;;;;;;17.15;100.00;100753.47;5023164;22;20073;-78
2023/05/22 07:16:35;;;;;;;98.72;64.57;;;;;;;17.32;100.00;100764.56;4997580;28;20097;-80
2023/05/22 07:19:02;;;;;;;98.57;61.53;;;;;;;17.42;100.00;100760.53;4997539;28;20062;-79
2023/05/22 07:21:39;;;;;;;101.50;66.32;;;;;;;17.36;100.00;100760.50;4999011;28;20073;-81
2023/05/22 07:24:10;;;;;;;101.65;66.50;;;;;;;17.42;100.00;100759.72;4990868;28;20046;-80
2023/05/22 07:26:37;;;;;;;87.65;58.63;;;;;;;17.50;100.00;100762.16;4998581;28;20061;-80
2023/05/22 07:29:06;;;;;;;91.47;58.42;;;;;;;17.39;100.00;100763.56;4996603;28;20577;-80
2023/05/22 07:31:33;;;;;;;89.18;58.80;;;;;;;17.55;100.00;100757.91;4996730;28;20046;-78
2023/05/22 07:34:00;;;;;;;88.15;58.28;;;;;;;17.56;100.00;100756.09;5000547;28;20074;-78
2023/05/22 07:36:26;;;;;;;87.63;60.05;;;;;;;17.55;100.00;100765.84;4997652;28;20048;-80
2023/05/22 07:38:53;;;;;;;92.15;60.10;;;;;;;17.64;100.00;100774.44;4998682;28;20160;-80
2023/05/22 07:41:20;;;;;;;95.45;59.72;;;;;;;17.81;100.00;100774.94;4996696;28;20687;-80
2023/05/22 07:43:47;;;;;;;93.50;61.35;;;;;;;17.80;100.00;100763.53;4997443;28;21124;-80
2023/05/22 07:46:15;;;;;;;93.57;61.30;;;;;;;17.89;100.00;100761.50;4997005;28;20157;-79
2023/05/22 07:48:48;;;;;;;86.03;57.08;;;;;;;17.86;100.00;100756.63;4990481;28;20129;-79
2023/05/22 07:51:14;;;;;;;94.32;61.70;;;;;;;17.93;100.00;100769.88;4988957;28;20101;-78
2023/05/22 07:53:44;;;;;;;81.15;55.28;;;;;;;18.04;100.00;100759.47;4995088;28;20050;-80
2023/05/22 07:56:14;;;;;;;68.20;47.28;;;;;;;17.99;99.86;100761.09;4988404;28;20141;-79
2023/05/22 07:58:46;;;;;;;61.75;43.05;;;;;;;17.98;99.24;100765.59;4994250;28;20057;-80
2023/05/22 08:01:15;;;;;;;;;;;;;;;18.26;99.28;100768.06;4988473;28;20453;-79
2023/05/22 08:03:42;;;;;;;73.55;48.85;;;;;;;18.55;97.64;100751.75;4993881;28;19921;-79
2023/05/22 08:06:14;;;;;;;89.40;59.83;;;;;;;18.38;96.77;100758.50;4994255;28;20143;-80
2023/05/22 08:08:41;;;;;;;70.72;52.60;;;;;;;18.26;96.61;100757.47;4994056;28;20114;-79
2023/05/22 08:11:08;;;;;;;76.93;52.47;;;;;;;18.53;96.01;100752.97;4996568;28;20050;-80
2023/05/22 08:13:36;;;;;;;75.43;48.17;;;;;;;18.72;95.70;100760.13;4988106;28;20498;-79
2023/05/22 08:16:03;;;;;;;79.05;53.55;;;;;;;18.66;95.17;100753.00;4986377;28;20062;-79
2023/05/22 08:18:31;;;;;;;69.97;45.40;;;;;;;18.61;94.78;100744.84;4987045;28;20113;-79
2023/05/22 08:20:58;;;;;;;71.75;44.90;;;;;;;18.46;95.71;100762.75;4984425;28;20100;-78
2023/05/22 08:23:25;;;;;;;63.28;44.47;;;;;;;18.24;96.65;100770.13;4987477;28;20062;-78
2023/05/22 08:25:52;;;;;;;56.95;38.30;;;;;;;18.51;96.52;100771.72;4983701;28;20064;-79
2023/05/22 08:28:18;;;;;;;54.63;40.83;;;;;;;18.47;96.04;100770.50;4984553;28;20055;-78
2023/05/22 08:30:45;;;;;;;62.13;41.58;;;;;;;18.84;95.02;100763.81;4988058;28;20552;-79
2023/05/22 08:33:11;;;;;;;59.75;41.40;;;;;;;18.84;95.11;100755.03;4984403;28;20466;-80
2023/05/22 08:35:39;;;;;;;57.40;37.58;;;;;;;18.77;95.02;100759.53;4982936;28;20046;-80
2023/05/22 08:38:06;;;;;;;47.03;36.38;;;;;;;18.66;94.80;100778.69;4984530;28;20074;-79
2023/05/22 08:40:36;;;;;;;52.10;38.05;;;;;;;18.70;94.61;100777.28;4983892;28;20450;-79
2023/05/22 08:43:04;;;;;;;47.63;37.17;;;;;;;18.55;94.27;100772.16;4982873;28;20043;-77
2023/05/22 08:45:32;;;;;;;55.08;37.97;;;;;;;18.95;93.33;100769.47;4985944;28;20054;-78
2023/05/22 08:48:01;;;;;;;52.25;36.65;;;;;;;18.88;93.47;100772.16;4983051;28;20162;-77
2023/05/22 08:50:28;;;;;;;53.85;37.97;;;;;;;18.85;93.01;100762.78;4977434;28;20133;-80
2023/05/22 08:52:57;;;;;;;52.25;37.92;;;;;;;18.85;93.52;100777.88;4986667;28;20639;-78
2023/05/22 08:55:24;;;;;;;59.30;40.00;;;;;;;18.33;94.89;100776.03;4984125;28;20072;-79
2023/05/22 08:57:51;;;;;;;59.38;39.95;;;;;;;18.35;95.55;100779.28;4989064;28;20058;-77
2023/05/22 09:00:19;;;;;;;61.33;40.33;;;;;;;18.22;96.75;100783.56;4982641;28;20134;-78
2023/05/22 09:02:47;;;;;;;57.80;40.10;;;;;;;18.38;96.86;100786.84;4978129;28;20574;-77
2023/05/22 09:05:16;;;;;;;62.40;42.97;;;;;;;18.49;95.89;100783.56;4981339;28;20050;-79
2023/05/22 09:07:43;;;;;;;64.65;44.25;;;;;;;18.54;95.41;100783.75;4991227;28;20079;-78
2023/05/22 09:10:11;;;;;;;67.07;45.30;;;;;;;18.08;95.68;100792.50;4985286;28;20088;-77
2023/05/22 09:12:38;;;;;;;62.08;42.83;;;;;;;18.35;96.23;100795.19;4987167;28;20085;-79
2023/05/22 09:15:09;;;;;;;65.85;43.72;;;;;;;18.27;96.46;100793.53;4983650;28;20086;-78
2023/05/22 09:17:39;;;;;;;58.75;42.28;;;;;;;17.95;96.56;100792.50;4986463;28;20043;-79
2023/05/22 09:20:06;;;;;;;66.65;45.92;;;;;;;17.92;97.41;100786.78;4987374;28;20046;-79
2023/05/22 09:22:37;;;;;;;68.78;45.67;;;;;;;18.01;97.15;100786.38;4991570;28;20491;-79
2023/05/22 09:25:06;;;;;;;68.88;45.92;;;;;;;18.05;97.95;100795.53;4986609;28;20050;-80
2023/05/22 09:27:39;;;;;;;70.70;45.10;;;;;;;18.31;97.02;100793.97;4992881;28;20105;-79
2023/05/22 09:30:09;;;;;;;74.03;45.83;;;;;;;18.38;96.57;100781.53;4996219;28;20047;-80
2023/05/22 09:32:36;;;;;;;71.72;45.78;;;;;;;18.73;95.85;100790.94;4992154;28;20129;-78
2023/05/22 09:35:04;;;;;;;72.28;45.92;;;;;;;18.65;94.93;100791.13;4990742;28;20042;-79
2023/05/22 09:37:34;;;;;;;73.97;46.05;;;;;;;18.65;95.28;100788.47;4991044;28;20038;-80
2023/05/22 09:40:06;;;;;;;70.75;45.72;;;;;;;18.71;94.92;100795.63;4986130;28;20474;-77
2023/05/22 09:42:35;;;;;;;70.40;45.35;;;;;;;18.95;94.71;100782.72;4987916;28;20099;-79
2023/05/22 09:45:06;;;;;;;73.18;47.28;;;;;;;18.61;94.29;100789.09;4985732;28;20069;-78
2023/05/22 09:47:33;;;;;;;67.88;45.78;;;;;;;18.66;94.32;100784.00;4988126;28;20046;-78
2023/05/22 09:50:03;;;;;;;77.70;45.38;;;;;;;19.06;93.78;100792.69;4988219;28;20046;-78
2023/05/22 09:52:33;;;;;;;77.03;48.50;;;;;;;18.84;93.58;100790.31;4995666;28;20053;-79
2023/05/22 09:55:03;;;;;;;71.20;46.70;;;;;;;19.00;92.86;100777.63;4986814;28;20580;-78
2023/05/22 09:57:32;;;;;;;73.78;47.28;;;;;;;18.60;93.82;100798.88;4987237;28;20070;-79
2023/05/22 10:00:08;;;;;;;76.70;48.00;;;;;;;18.52;94.39;100796.41;4986457;28;20066;-77
2023/05/22 10:02:36;;;;;;;71.13;45.97;;;;;;;19.09;93.58;100790.44;4984479;28;20081;-79
2023/05/22 10:05:06;;;;;;;75.13;47.80;;;;;;;19.27;92.72;100794.28;4991836;28;20046;-78
2023/05/22 10:07:36;;;;;;;74.55;45.85;;;;;;;19.12;92.00;100789.22;4991833;28;20502;-79
2023/05/22 10:10:08;;;;;;;73.05;45.47;;;;;;;19.09;92.14;100793.09;4985972;28;20053;-79
2023/05/22 10:12:41;;;;;;;72.90;44.83;;;;;;;19.23;91.68;100797.38;4988519;28;20051;-78
2023/05/22 10:15:11;;;;;;;76.18;46.72;;;;;;;19.31;90.71;100792.84;4983830;28;20062;-78
2023/05/22 10:17:40;;;;;;;72.15;47.20;;;;;;;19.07;91.05;100794.34;4984607;28;20054;-78
2023/05/22 10:20:09;;;;;;;73.07;44.85;;;;;;;19.25;91.27;100791.84;4983828;28;20085;-79
2023/05/22 10:22:37;;;;;;;76.97;46.22;;;;;;;19.53;90.39;100795.03;4986550;28;20050;-78
2023/05/22 10:25:04;;;;;;;75.57;48.00;;;;;;;19.87;89.27;100793.81;4994262;28;20493;-78
2023/05/22 10:27:30;;;;;;;77.43;47.38;;;;;;;19.20;88.98;100786.34;4995704;28;20418;-78
2023/05/22 10:30:05;;;;;;;72.95;48.47;;;;;;;19.27;89.64;100789.81;4987024;28;20089;-78
2023/05/22 10:32:43;;;;;;;74.85;48.67;;;;;;;19.20;90.52;100792.47;4990405;28;20463;-78
2023/05/22 10:35:18;;;;;;;76.55;47.92;;;;;;;18.97;91.40;100791.28;4993996;28;20046;-78
2023/05/22 10:37:49;;;;;;;74.75;47.92;;;;;;;19.34;90.67;100789.78;4996951;28;20042;-79
2023/05/22 10:40:27;;;;;;;79.03;48.47;;;;;;;19.30;90.28;100788.56;4988641;28;20557;-77
2023/05/22 10:42:57;;;;;;;79.13;48.95;;;;;;;19.25;89.83;100786.53;4989745;28;20061;-77
2023/05/22 10:45:26;;;;;;;86.60;50.45;;;;;;;19.45;89.84;100784.63;4985716;28;20053;-78
2023/05/22 10:48:04;;;;;;;76.53;47.55;;;;;;;19.57;89.10;100779.50;4985153;28;20528;-78
2023/05/22 10:50:30;;;;;;;78.97;49.88;;;;;;;19.73;88.89;100786.97;4988090;28;20520;-79
2023/05/22 10:53:18;;;;;;;73.88;47.38;;;;;;;19.90;87.88;100781.97;4985322;28;20125;-79
2023/05/22 10:55:49;;;;;;;73.20;48.05;;;;;;;20.00;87.01;100770.88;4989994;28;20046;-78
2023/05/22 10:58:16;;;;;;;71.35;47.33;;;;;;;20.08;86.75;100775.94;4985113;28;20054;-78
2023/05/22 11:00:42;;;;;;;79.07;49.05;;;;;;;20.06;86.80;100770.84;4984674;28;20043;-78
2023/05/22 11:03:11;;;;;;;75.90;47.45;;;;;;;19.84;87.80;100777.53;4982184;28;20093;-76
2023/05/22 11:05:39;;;;;;;75.32;49.88;;;;;;;19.70;87.78;100773.31;4979819;28;20050;-78
2023/05/22 11:08:36;;;;;;;71.60;47.58;;;;;;;19.91;87.78;100772.97;4982696;28;20102;-79
2023/05/22 11:11:12;;;;;;;72.22;48.97;;;;;;;20.60;86.69;100760.63;4988488;28;20053;-77